createdAt,value
2023-01-04T00:01:22.316Z,5.26
2023-01-04T00:03:48.899Z,5.29
2023-01-04T00:06:17.021Z,5.25
2023-01-04T00:08:43.563Z,5.52
2023-01-04T00:11:21.442Z,5.42
2023-01-04T00:13:50.093Z,5.56
2023-01-04T00:16:22.080Z,5.68
2023-01-04T00:18:49.911Z,5.85
2023-01-04T00:21:22.588Z,5.76
2023-01-04T00:23:51.220Z,5.98
2023-01-04T00:26:25.427Z,5.98
2023-01-04T00:28:58.939Z,6.12
2023-01-04T00:31:26.273Z,6.08
2023-01-04T00:33:57.845Z,6.06
2023-01-04T00:36:24.826Z,6.10
2023-01-04T00:39:10.398Z,6.13
2023-01-04T00:41:58.246Z,6.20
2023-01-04T00:44:24.347Z,6.29
2023-01-04T00:46:50.837Z,6.36
2023-01-04T00:49:17.258Z,6.35
2023-01-04T00:51:43.641Z,6.42
2023-01-04T00:54:14.022Z,6.46
2023-01-04T00:56:40.594Z,6.41
2023-01-04T00:59:07.044Z,6.54
2023-01-04T01:01:34.545Z,6.71
2023-01-04T01:04:03.686Z,6.76
2023-01-04T01:06:31.961Z,6.83
2023-01-04T01:08:59.049Z,6.83
2023-01-04T01:11:25.983Z,6.80
2023-01-04T01:13:53.051Z,6.84
2023-01-04T01:16:44.559Z,7.06
2023-01-04T01:19:08.875Z,6.80
2023-01-04T01:21:35.409Z,6.92
2023-01-04T01:24:02.000Z,7.11
2023-01-04T01:26:28.456Z,7.11
2023-01-04T01:28:54.855Z,7.01
2023-01-04T01:31:26.473Z,6.96
2023-01-04T01:33:55.451Z,7.18
2023-01-04T01:36:23.456Z,7.13
2023-01-04T01:38:50.485Z,7.16
2023-01-04T01:41:29.417Z,7.12
2023-01-04T01:43:57.294Z,7.16
2023-01-04T01:46:29.653Z,6.95
2023-01-04T01:49:00.908Z,7.06
2023-01-04T01:51:28.649Z,7.19
2023-01-04T01:54:01.895Z,7.27
2023-01-04T01:56:31.947Z,7.33
2023-01-04T01:58:59.382Z,7.40
2023-01-04T02:01:26.699Z,7.24
2023-01-04T02:03:53.674Z,7.30
2023-01-04T02:06:31.219Z,7.24
2023-01-04T02:08:57.983Z,7.18
2023-01-04T02:11:24.339Z,7.37
2023-01-04T02:14:09.846Z,7.31
2023-01-04T02:17:07.357Z,7.40
2023-01-04T02:19:49.595Z,7.54
2023-01-04T02:22:21.918Z,7.44
2023-01-04T02:24:56.615Z,7.36
2023-01-04T02:27:46.131Z,7.42
2023-01-04T02:30:37.199Z,7.46
2023-01-04T02:33:15.620Z,7.57
2023-01-04T02:36:02.569Z,7.35
2023-01-04T02:38:39.591Z,7.31
2023-01-04T02:41:35.075Z,7.43
2023-01-04T02:44:34.517Z,7.45
2023-01-04T02:47:10.155Z,7.48
2023-01-04T02:49:59.201Z,7.37
2023-01-04T02:52:30.793Z,7.43
2023-01-04T02:54:58.189Z,7.45
2023-01-04T02:57:50.820Z,7.49
2023-01-04T03:00:58.708Z,7.43
2023-01-04T03:03:54.151Z,7.53
2023-01-04T03:06:32.812Z,7.45
2023-01-04T03:09:06.936Z,7.46
2023-01-04T03:12:01.589Z,7.35
2023-01-04T03:14:37.231Z,7.49
2023-01-04T03:17:10.710Z,7.55
2023-01-04T03:19:54.563Z,7.52
2023-01-04T03:22:45.695Z,7.68
2023-01-04T03:25:32.526Z,7.44
2023-01-04T03:28:18.884Z,7.60
2023-01-04T03:31:10.463Z,7.58
2023-01-04T03:33:55.946Z,7.58
2023-01-04T03:36:40.576Z,7.82
2023-01-04T03:39:35.223Z,7.79
2023-01-04T03:42:50.383Z,7.65
2023-01-04T03:45:38.209Z,7.65
2023-01-04T03:48:31.748Z,7.69
2023-01-04T03:51:07.553Z,7.79
2023-01-04T03:53:41.386Z,7.67
2023-01-04T03:56:10.773Z,7.75
2023-01-04T03:58:37.789Z,7.71
2023-01-04T04:01:06.105Z,7.82
2023-01-04T04:03:51.297Z,7.80
2023-01-04T04:06:36.222Z,7.75
2023-01-04T04:09:03.503Z,7.89
2023-01-04T04:11:33.082Z,7.76
2023-01-04T04:14:00.333Z,7.71
2023-01-04T04:16:27.128Z,7.91
2023-01-04T04:18:53.996Z,7.97
2023-01-04T04:21:20.463Z,7.92
2023-01-04T04:23:46.925Z,7.86
2023-01-04T04:26:13.381Z,8.15
2023-01-04T04:28:39.806Z,8.16
2023-01-04T04:31:06.543Z,8.04
2023-01-04T04:33:32.946Z,8.22
2023-01-04T04:35:59.414Z,8.20
2023-01-04T04:38:25.805Z,8.21
2023-01-04T04:41:10.629Z,8.25
2023-01-04T04:43:36.969Z,8.24
2023-01-04T04:46:03.702Z,8.38
2023-01-04T04:48:30.212Z,8.35
2023-01-04T04:50:56.727Z,8.44
2023-01-04T04:53:23.364Z,8.31
2023-01-04T04:55:53.823Z,8.47
2023-01-04T04:58:21.284Z,8.29
2023-01-04T05:00:47.694Z,8.33
2023-01-04T05:03:14.194Z,8.30
2023-01-04T05:05:40.705Z,8.49
2023-01-04T05:08:07.259Z,8.33
2023-01-04T05:10:33.887Z,8.41
2023-01-04T05:13:00.245Z,8.42
2023-01-04T05:15:29.094Z,8.45
2023-01-04T05:17:55.741Z,8.50
2023-01-04T05:20:22.145Z,8.43
2023-01-04T05:22:48.682Z,8.46
2023-01-04T05:25:15.580Z,8.46
2023-01-04T05:27:41.960Z,8.50
2023-01-04T05:30:30.148Z,8.47
2023-01-04T05:32:56.917Z,8.65
2023-01-04T05:35:23.468Z,8.48
2023-01-04T05:37:49.877Z,8.51
2023-01-04T05:40:16.749Z,8.47
2023-01-04T05:42:43.379Z,8.51
2023-01-04T05:45:10.560Z,8.58
2023-01-04T05:47:37.204Z,8.87
2023-01-04T05:50:04.303Z,8.81
2023-01-04T05:52:30.961Z,8.85
2023-01-04T05:54:57.520Z,8.93
2023-01-04T05:57:23.953Z,8.96
2023-01-04T05:59:50.380Z,8.99
2023-01-04T06:02:19.675Z,8.86
2023-01-04T06:04:46.935Z,8.90
2023-01-04T06:07:15.344Z,8.84
2023-01-04T06:09:42.120Z,8.84
2023-01-04T06:12:09.493Z,8.99
2023-01-04T06:14:36.270Z,9.10
2023-01-04T06:17:03.069Z,9.08
2023-01-04T06:19:29.459Z,9.02
2023-01-04T06:21:56.130Z,8.88
2023-01-04T06:24:22.697Z,9.07
2023-01-04T06:26:49.468Z,9.02
2023-01-04T06:29:16.004Z,8.89
2023-01-04T06:31:42.668Z,8.96
2023-01-04T06:34:11.836Z,9.03
2023-01-04T06:36:38.751Z,9.00
2023-01-04T06:39:06.250Z,9.08
2023-01-04T06:41:32.826Z,9.03
2023-01-04T06:43:59.227Z,8.99
2023-01-04T06:46:26.186Z,9.03
2023-01-04T06:48:53.908Z,9.15
2023-01-04T06:51:21.080Z,9.02
2023-01-04T06:53:47.622Z,9.13
2023-01-04T06:56:14.124Z,9.01
2023-01-04T06:58:40.861Z,9.12
2023-01-04T07:01:07.802Z,9.14
2023-01-04T07:03:34.809Z,9.12
2023-01-04T07:06:06.193Z,8.97
2023-01-04T07:08:34.608Z,8.96
2023-01-04T07:11:01.714Z,8.96
2023-01-04T07:13:28.265Z,8.98
2023-01-04T07:15:54.861Z,9.07
2023-01-04T07:18:21.845Z,9.00
2023-01-04T07:20:48.342Z,9.11
2023-01-04T07:23:14.775Z,9.13
2023-01-04T07:25:41.171Z,9.24
2023-01-04T07:28:09.175Z,9.15
2023-01-04T07:30:36.047Z,9.09
2023-01-04T07:33:02.604Z,9.12
2023-01-04T07:35:28.965Z,9.00
2023-01-04T07:37:58.671Z,9.06
2023-01-04T07:40:26.533Z,9.22
2023-01-04T07:42:58.316Z,9.08
2023-01-04T07:45:25.173Z,9.02
2023-01-04T07:47:51.609Z,9.15
2023-01-04T07:50:18.042Z,9.14
2023-01-04T07:52:44.512Z,9.01
2023-01-04T07:55:10.944Z,9.12
2023-01-04T07:57:37.422Z,9.14
2023-01-04T08:00:05.308Z,9.09
2023-01-04T08:02:31.884Z,9.20
2023-01-04T08:04:58.425Z,9.12
2023-01-04T08:07:24.993Z,9.27
2023-01-04T08:09:51.446Z,9.17
2023-01-04T08:12:17.843Z,9.23
2023-01-04T08:14:44.237Z,9.19
2023-01-04T08:17:10.642Z,9.34
2023-01-04T08:19:37.046Z,9.58
2023-01-04T08:22:03.411Z,9.33
2023-01-04T08:24:30.029Z,9.32
2023-01-04T08:26:56.388Z,9.50
2023-01-04T08:29:22.747Z,9.41
2023-01-04T08:31:49.310Z,9.32
2023-01-04T08:34:15.830Z,9.27
2023-01-04T08:36:50.450Z,9.36
2023-01-04T08:39:17.546Z,9.46
2023-01-04T08:42:00.831Z,9.27
2023-01-04T08:44:29.262Z,9.34
2023-01-04T08:46:55.855Z,9.26
2023-01-04T08:49:23.649Z,9.40
2023-01-04T08:51:50.411Z,9.48
2023-01-04T08:54:17.495Z,9.58
2023-01-04T08:56:44.114Z,9.53
2023-01-04T08:59:12.735Z,9.54
2023-01-04T09:01:39.629Z,9.64
2023-01-04T09:04:06.721Z,9.56
2023-01-04T09:06:33.759Z,9.72
2023-01-04T09:09:00.258Z,9.62
2023-01-04T09:11:27.112Z,9.62
2023-01-04T09:14:07.334Z,9.61
2023-01-04T09:16:34.972Z,9.57
2023-01-04T09:19:01.470Z,9.57
2023-01-04T09:21:28.203Z,9.53
2023-01-04T09:23:57.072Z,9.52
2023-01-04T09:26:24.518Z,9.70
2023-01-04T09:28:53.319Z,9.75
2023-01-04T09:31:22.696Z,9.63
2023-01-04T09:34:18.524Z,9.60
2023-01-04T09:36:35.545Z,9.69
2023-01-04T09:39:01.945Z,9.99
2023-01-04T09:41:30.926Z,9.95
2023-01-04T09:47:33.134Z,9.77
2023-01-04T09:50:05.420Z,9.85
2023-01-04T09:52:50.369Z,9.90
2023-01-04T09:55:36.888Z,9.79
2023-01-04T09:58:24.672Z,9.76
2023-01-04T10:00:57.386Z,9.85
2023-01-04T10:03:28.473Z,10.00
2023-01-04T10:05:56.109Z,9.93
2023-01-04T10:08:23.174Z,10.04
2023-01-04T10:11:17.129Z,10.09
2023-01-04T10:14:02.334Z,10.00
2023-01-04T10:23:10.702Z,9.96
2023-01-04T10:25:54.498Z,9.94
2023-01-04T10:28:48.355Z,10.01
2023-01-04T10:31:41.016Z,10.06
2023-01-04T10:34:18.570Z,10.05
2023-01-04T10:36:47.386Z,10.22
2023-01-04T10:39:17.027Z,10.02
2023-01-04T10:41:56.799Z,10.16
2023-01-04T10:44:38.161Z,10.15
2023-01-04T10:47:26.115Z,10.10
2023-01-04T10:49:57.704Z,10.15
2023-01-04T10:52:42.647Z,10.11
2023-01-04T10:55:41.811Z,10.16
2023-01-04T10:58:47.795Z,10.23
2023-01-04T11:01:23.644Z,10.18
2023-01-04T11:04:24.655Z,10.18
2023-01-04T11:06:57.483Z,10.30
2023-01-04T11:09:28.544Z,10.28
2023-01-04T11:11:57.117Z,10.24
2023-01-04T11:14:25.432Z,10.34
2023-01-04T11:16:58.093Z,10.42
2023-01-04T11:19:24.635Z,10.38
2023-01-04T11:21:59.021Z,10.33
2023-01-04T11:24:32.455Z,10.46
2023-01-04T11:27:06.335Z,10.32
2023-01-04T11:29:48.183Z,10.38
2023-01-04T11:32:51.015Z,10.35
2023-01-04T11:35:42.174Z,10.33
2023-01-04T11:38:22.558Z,10.49
2023-01-04T11:40:56.432Z,10.49
2023-01-04T11:43:24.814Z,10.33
2023-01-04T11:46:04.220Z,10.50
2023-01-04T11:48:34.881Z,10.45
2023-01-04T11:51:02.258Z,10.55
2023-01-04T11:53:33.163Z,10.47
2023-01-04T11:56:11.900Z,10.39
2023-01-04T11:58:38.718Z,10.49
2023-01-04T12:01:06.050Z,10.53
2023-01-04T12:03:40.043Z,10.71
2023-01-04T12:06:31.088Z,10.73
2023-01-04T12:08:57.775Z,10.60
2023-01-04T12:11:34.696Z,10.62
2023-01-04T12:14:02.271Z,10.72
2023-01-04T12:16:51.364Z,10.72
2023-01-04T12:19:19.668Z,10.75
2023-01-04T12:21:49.287Z,10.71
2023-01-04T12:24:25.005Z,10.61
2023-01-04T12:26:52.901Z,10.60
2023-01-04T12:29:25.117Z,10.52
2023-01-04T12:32:06.828Z,10.65
2023-01-04T12:34:34.280Z,10.48
2023-01-04T12:37:05.926Z,10.52
2023-01-04T12:39:43.339Z,10.57
2023-01-04T12:42:15.530Z,10.58
2023-01-04T12:44:43.299Z,10.70
2023-01-04T12:47:47.607Z,10.68
2023-01-04T12:50:23.283Z,10.77
2023-01-04T12:53:11.214Z,10.65
2023-01-04T12:55:44.890Z,10.59
2023-01-04T12:58:57.931Z,10.86
2023-01-04T13:01:28.917Z,10.88
2023-01-04T13:04:34.548Z,10.85
2023-01-04T13:07:14.001Z,10.90
2023-01-04T13:09:54.534Z,11.06
2023-01-04T13:12:36.749Z,11.10
2023-01-04T13:15:08.029Z,11.07
2023-01-04T13:17:39.984Z,11.20
2023-01-04T13:20:16.116Z,11.24
2023-01-04T13:22:51.088Z,11.02
2023-01-04T13:25:19.144Z,11.19
2023-01-04T13:28:18.744Z,11.11
2023-01-04T13:30:46.778Z,11.23
2023-01-04T13:33:28.326Z,11.10
2023-01-04T13:36:08.749Z,11.20
2023-01-04T13:38:36.371Z,11.22
2023-01-04T13:41:11.106Z,11.32
2023-01-04T13:43:54.287Z,11.23
2023-01-04T13:46:24.039Z,11.17
2023-01-04T13:48:53.712Z,11.33
2023-01-04T13:51:36.999Z,11.60
2023-01-04T13:54:07.243Z,11.42
2023-01-04T13:56:34.989Z,11.43
2023-01-04T13:59:01.943Z,11.23
2023-01-04T14:01:33.319Z,11.40
2023-01-04T14:04:02.266Z,11.56
2023-01-04T14:06:32.967Z,11.57
2023-01-04T14:09:05.702Z,11.57
2023-01-04T14:12:09.404Z,11.40
2023-01-04T14:15:03.542Z,11.39
2023-01-04T14:17:33.118Z,11.47
2023-01-04T14:20:02.302Z,11.34
2023-01-04T14:22:45.498Z,11.42
2023-01-04T14:25:30.711Z,11.33
2023-01-04T14:28:19.220Z,11.22
2023-01-04T14:30:47.563Z,11.05
2023-01-04T14:33:19.272Z,11.26
2023-01-04T14:35:48.939Z,11.37
2023-01-04T14:38:19.127Z,11.25
2023-01-04T14:40:46.538Z,11.12
2023-01-04T14:43:35.356Z,11.10
2023-01-04T14:46:02.641Z,11.11
2023-01-04T14:48:30.195Z,11.01
2023-01-04T14:50:59.415Z,11.05
2023-01-04T14:53:26.127Z,11.00
2023-01-04T14:55:54.621Z,11.12
2023-01-04T14:58:22.021Z,11.00
2023-01-04T15:00:48.861Z,11.05
2023-01-04T15:03:15.443Z,11.11
2023-01-04T15:05:45.020Z,11.07
2023-01-04T15:08:12.728Z,10.93
2023-01-04T15:10:39.310Z,10.99
2023-01-04T15:13:05.751Z,11.05
2023-01-04T15:15:34.900Z,11.02
2023-01-04T15:18:01.445Z,11.09
2023-01-04T15:20:27.856Z,11.08
2023-01-04T15:22:54.228Z,11.03
2023-01-04T15:25:20.661Z,11.16
2023-01-04T15:27:47.082Z,11.14
2023-01-04T15:30:14.128Z,11.10
2023-01-04T15:32:40.803Z,11.02
2023-01-04T15:35:07.997Z,11.14
2023-01-04T15:37:34.418Z,11.12
2023-01-04T15:40:03.170Z,11.26
2023-01-04T15:42:48.956Z,11.22
2023-01-04T15:45:15.643Z,11.16
2023-01-04T15:47:42.283Z,11.27
2023-01-04T15:50:08.896Z,11.29
2023-01-04T15:52:35.681Z,11.18
2023-01-04T15:55:02.077Z,11.12
2023-01-04T15:57:28.492Z,11.09
2023-01-04T15:59:54.878Z,10.99
2023-01-04T16:02:21.376Z,11.11
2023-01-04T16:04:47.968Z,11.28
2023-01-04T16:07:14.464Z,11.17
2023-01-04T16:09:40.983Z,11.18
2023-01-04T16:12:26.340Z,11.19
2023-01-04T16:14:53.408Z,11.20
2023-01-04T16:17:19.811Z,11.32
2023-01-04T16:19:49.861Z,11.31
2023-01-04T16:22:16.265Z,11.20
2023-01-04T16:25:09.815Z,11.32
2023-01-04T16:27:35.394Z,11.32
2023-01-04T16:30:03.775Z,11.12
2023-01-04T16:32:30.149Z,11.23
2023-01-04T16:35:00.577Z,11.18
2023-01-04T16:37:28.433Z,11.17
2023-01-04T16:40:10.278Z,11.29
2023-01-04T16:42:38.375Z,11.22
2023-01-04T16:45:05.814Z,11.39
2023-01-04T16:47:42.751Z,11.17
2023-01-04T16:50:10.497Z,11.33
2023-01-04T16:52:36.985Z,11.25
2023-01-04T16:55:03.825Z,11.28
2023-01-04T16:57:30.292Z,11.36
2023-01-04T16:59:56.687Z,11.23
2023-01-04T17:02:23.490Z,11.28
2023-01-04T17:04:55.165Z,11.35
2023-01-04T17:07:21.847Z,11.23
2023-01-04T17:09:49.257Z,11.42
2023-01-04T17:17:48.664Z,11.26
2023-01-04T17:20:15.109Z,11.34
2023-01-04T17:22:41.450Z,11.34
2023-01-04T17:25:08.095Z,11.36
2023-01-04T17:27:35.362Z,11.37
2023-01-04T17:30:01.905Z,11.37
2023-01-04T17:32:28.563Z,11.31
2023-01-04T17:34:57.468Z,11.34
2023-01-04T17:37:23.992Z,11.33
2023-01-04T17:39:50.538Z,11.43
2023-01-04T17:42:17.239Z,11.53
2023-01-04T17:44:43.592Z,11.54
2023-01-04T17:47:10.025Z,11.40
2023-01-04T17:49:38.568Z,11.37
2023-01-04T17:52:07.035Z,11.31
2023-01-04T17:54:35.040Z,11.56
2023-01-04T17:57:01.410Z,11.56
2023-01-04T17:59:27.970Z,11.38
2023-01-04T18:01:54.408Z,11.50
2023-01-04T18:04:20.948Z,11.49
2023-01-04T18:06:47.349Z,11.52
2023-01-04T18:09:16.949Z,11.45
2023-01-04T18:11:48.631Z,11.53
2023-01-04T18:14:15.275Z,11.49
2023-01-04T18:16:58.040Z,11.55
2023-01-04T18:19:27.132Z,11.68
2023-01-04T18:21:53.823Z,11.63
2023-01-04T18:24:37.715Z,11.54
2023-01-04T18:27:24.285Z,11.56
2023-01-04T18:29:56.216Z,11.53
2023-01-04T18:32:24.100Z,11.68
2023-01-04T18:34:50.572Z,11.68
2023-01-04T18:37:18.293Z,11.70
2023-01-04T18:39:45.267Z,11.71
2023-01-04T18:42:11.716Z,11.61
2023-01-04T18:44:43.789Z,11.53
2023-01-04T18:47:14.446Z,11.60
2023-01-04T18:49:40.917Z,11.66
2023-01-04T18:52:07.315Z,11.73
2023-01-04T18:54:33.788Z,11.77
2023-01-04T18:57:01.352Z,11.79
2023-01-04T18:59:31.658Z,11.88
2023-01-04T19:02:02.154Z,11.89
2023-01-04T19:04:34.717Z,11.70
2023-01-04T19:07:02.011Z,11.72
2023-01-04T19:09:28.454Z,11.90
2023-01-04T19:11:54.862Z,11.75
2023-01-04T19:14:21.384Z,11.79
2023-01-04T19:16:47.929Z,11.99
2023-01-04T19:19:14.393Z,11.88
2023-01-04T19:21:40.887Z,11.78
2023-01-04T19:24:07.497Z,11.72
2023-01-04T19:26:33.999Z,11.82
2023-01-04T19:29:00.389Z,12.00
2023-01-04T19:31:26.852Z,11.90
2023-01-04T19:33:53.283Z,11.72
2023-01-04T19:36:19.934Z,11.83
2023-01-04T19:38:46.451Z,11.75
2023-01-04T19:41:18.353Z,11.85
2023-01-04T19:43:44.785Z,11.97
2023-01-04T19:46:11.770Z,11.86
2023-01-04T19:48:38.822Z,11.88
2023-01-04T19:51:11.760Z,11.85
2023-01-04T19:53:38.926Z,11.97
2023-01-04T19:56:05.782Z,11.81
2023-01-04T19:58:32.255Z,11.91
2023-01-04T20:00:58.729Z,11.98
2023-01-04T20:03:28.875Z,12.00
2023-01-04T20:05:55.761Z,11.99
2023-01-04T20:08:22.471Z,11.84
2023-01-04T20:10:56.466Z,11.84
2023-01-04T20:13:23.771Z,11.90
2023-01-04T20:15:51.751Z,11.93
2023-01-04T20:18:18.901Z,11.95
2023-01-04T20:20:45.953Z,11.99
2023-01-04T20:23:13.007Z,11.99
2023-01-04T20:25:43.444Z,12.05
2023-01-04T20:28:10.405Z,12.01
2023-01-04T20:30:37.505Z,12.09
2023-01-04T20:33:04.639Z,12.02
2023-01-04T20:35:31.439Z,12.18
2023-01-04T20:37:57.930Z,12.13
2023-01-04T20:40:25.881Z,12.12
2023-01-04T20:43:11.217Z,12.19
2023-01-04T20:45:47.974Z,12.32
2023-01-04T20:48:15.364Z,12.37
2023-01-04T20:50:42.175Z,12.33
2023-01-04T20:53:08.669Z,12.43
2023-01-04T20:55:40.322Z,12.31
2023-01-04T20:58:08.897Z,12.46
2023-01-04T21:00:37.020Z,12.54
2023-01-04T21:03:05.816Z,12.54
2023-01-04T21:05:44.339Z,12.57
2023-01-04T21:08:12.484Z,12.60
2023-01-04T21:10:43.308Z,12.64
2023-01-04T21:13:11.900Z,12.63
2023-01-04T21:15:39.827Z,12.67
2023-01-04T21:18:07.062Z,12.66
2023-01-04T21:20:33.650Z,12.73
2023-01-04T21:23:00.130Z,12.78
2023-01-04T21:25:26.559Z,12.83
2023-01-04T21:27:53.206Z,12.80
2023-01-04T21:30:19.793Z,12.85
2023-01-04T21:32:46.271Z,12.99
2023-01-04T21:35:12.695Z,12.91
2023-01-04T21:37:39.068Z,12.86
2023-01-04T21:40:06.111Z,12.77
2023-01-04T21:42:32.502Z,12.94
2023-01-04T21:44:59.062Z,12.85
2023-01-04T21:47:25.476Z,12.85
2023-01-04T21:49:51.876Z,12.79
2023-01-04T21:52:18.267Z,12.84
2023-01-04T21:54:44.675Z,12.87
2023-01-04T21:57:11.120Z,12.77
2023-01-04T21:59:37.604Z,12.80
2023-01-04T22:02:04.975Z,12.88
2023-01-04T22:04:33.091Z,12.76
2023-01-04T22:06:59.544Z,12.68
2023-01-04T22:09:25.982Z,12.54
2023-01-04T22:11:52.496Z,12.59
2023-01-04T22:14:19.084Z,12.63
2023-01-04T22:16:45.666Z,12.56
2023-01-04T22:19:13.438Z,12.50
2023-01-04T22:21:40.424Z,12.44
2023-01-04T22:24:07.925Z,12.43
2023-01-04T22:26:34.300Z,12.32
2023-01-04T22:29:01.411Z,12.32
2023-01-04T22:31:28.225Z,12.30
2023-01-04T22:33:54.776Z,12.22
2023-01-04T22:36:23.196Z,12.28
2023-01-04T22:38:51.149Z,12.14
2023-01-04T22:41:19.187Z,12.24
2023-01-04T22:43:46.044Z,12.11
2023-01-04T22:46:15.686Z,12.13
2023-01-04T22:48:42.128Z,12.32
2023-01-04T22:51:10.532Z,12.26
2023-01-04T22:53:37.135Z,12.40
2023-01-04T22:56:19.044Z,12.44
2023-01-04T22:58:52.345Z,12.35
2023-01-04T23:01:20.562Z,12.25
2023-01-04T23:03:47.271Z,12.25
2023-01-04T23:06:13.998Z,12.33
2023-01-04T23:08:41.208Z,12.49
2023-01-04T23:11:11.316Z,12.23
2023-01-04T23:13:37.730Z,12.34
2023-01-04T23:16:09.722Z,12.22
2023-01-04T23:18:36.958Z,12.42
2023-01-04T23:21:04.796Z,12.35
2023-01-04T23:23:32.011Z,12.14
2023-01-04T23:26:04.572Z,12.34
2023-01-04T23:28:30.983Z,12.31
2023-01-04T23:31:01.492Z,12.40
2023-01-04T23:33:33.997Z,12.45
2023-01-04T23:36:15.846Z,12.28
2023-01-04T23:38:43.104Z,12.52
2023-01-04T23:41:10.518Z,12.45
2023-01-04T23:43:38.573Z,12.48
2023-01-04T23:46:16.706Z,12.53
2023-01-04T23:48:43.799Z,12.42
2023-01-04T23:51:12.223Z,12.51
2023-01-04T23:53:38.682Z,12.43
2023-01-04T23:56:14.729Z,12.40
2023-01-04T23:58:41.540Z,12.51
